createdAt,value
2022-10-27T00:00:34.424Z,99.99
2022-10-27T00:01:34.721Z,99.99
2022-10-27T00:02:34.485Z,99.99
2022-10-27T00:03:34.625Z,99.99
2022-10-27T00:04:34.713Z,99.99
2022-10-27T00:05:34.700Z,99.99
2022-10-27T00:06:34.768Z,99.99
2022-10-27T00:07:34.447Z,99.99
2022-10-27T00:08:34.361Z,99.99
2022-10-27T00:09:34.321Z,99.99
2022-10-27T00:10:34.357Z,99.99
2022-10-27T00:11:34.294Z,99.99
2022-10-27T00:12:34.787Z,99.99
2022-10-27T00:13:34.295Z,99.99
2022-10-27T00:14:34.299Z,99.99
2022-10-27T00:15:34.568Z,99.99
2022-10-27T00:16:34.751Z,99.99
2022-10-27T00:17:34.248Z,99.99
2022-10-27T00:18:34.684Z,99.99
2022-10-27T00:19:34.474Z,99.99
2022-10-27T00:20:34.794Z,99.99
2022-10-27T00:21:34.799Z,99.99
2022-10-27T00:22:34.454Z,99.99
2022-10-27T00:23:34.355Z,99.99
2022-10-27T00:24:34.278Z,99.99
2022-10-27T00:25:34.275Z,99.99
2022-10-27T00:26:34.166Z,99.99
2022-10-27T00:27:34.477Z,99.99
2022-10-27T00:28:34.431Z,99.99
2022-10-27T00:29:34.225Z,99.99
2022-10-27T00:30:34.147Z,99.99
2022-10-27T00:31:34.150Z,99.99
2022-10-27T00:32:34.197Z,99.99
2022-10-27T00:33:34.463Z,99.99
2022-10-27T00:34:34.401Z,99.99
2022-10-27T00:35:34.429Z,99.99
2022-10-27T00:36:34.163Z,99.99
2022-10-27T00:37:34.858Z,99.99
2022-10-27T00:38:34.497Z,99.84
2022-10-27T00:39:34.473Z,99.74
2022-10-27T00:40:34.219Z,99.84
2022-10-27T00:41:34.123Z,99.94
2022-10-27T00:42:33.998Z,99.99
2022-10-27T00:43:34.036Z,99.99
2022-10-27T00:44:34.164Z,99.99
2022-10-27T00:45:34.026Z,99.99
2022-10-27T00:46:34.011Z,99.99
2022-10-27T00:47:33.981Z,99.94
2022-10-27T00:48:33.967Z,99.99
2022-10-27T00:49:33.969Z,99.99
2022-10-27T00:50:33.923Z,99.99
2022-10-27T00:51:34.186Z,99.99
2022-10-27T00:52:33.981Z,99.99
2022-10-27T00:53:34.354Z,99.94
2022-10-27T00:54:33.928Z,99.84
2022-10-27T00:55:33.908Z,99.79
2022-10-27T00:56:34.058Z,99.94
2022-10-27T00:57:34.269Z,99.99
2022-10-27T00:58:33.908Z,99.99
2022-10-27T00:59:34.168Z,99.99
2022-10-27T01:00:34.181Z,99.99
2022-10-27T01:01:34.035Z,99.89
2022-10-27T01:02:33.798Z,99.69
2022-10-27T01:03:33.808Z,99.49
2022-10-27T01:04:33.998Z,99.38
2022-10-27T01:05:33.840Z,99.28
2022-10-27T01:06:33.828Z,99.18
2022-10-27T01:07:33.765Z,99.08
2022-10-27T01:08:33.946Z,98.97
2022-10-27T01:09:33.998Z,98.97
2022-10-27T01:10:33.828Z,99.08
2022-10-27T01:11:33.902Z,99.18
2022-10-27T01:12:33.952Z,99.28
2022-10-27T01:13:34.095Z,99.28
2022-10-27T01:14:33.977Z,99.38
2022-10-27T01:15:34.144Z,99.58
2022-10-27T01:16:34.091Z,99.79
2022-10-27T01:17:33.724Z,99.69
2022-10-27T01:18:33.809Z,99.49
2022-10-27T01:19:33.805Z,99.49
2022-10-27T01:20:33.654Z,99.69
2022-10-27T01:21:33.974Z,99.38
2022-10-27T01:22:34.038Z,99.28
2022-10-27T01:23:34.005Z,99.18
2022-10-27T01:24:33.858Z,99.08
2022-10-27T01:25:33.990Z,98.97
2022-10-27T01:26:34.240Z,98.97
2022-10-27T01:27:33.711Z,99.13
2022-10-27T01:28:33.686Z,99.13
2022-10-27T01:29:33.761Z,99.43
2022-10-27T01:30:33.584Z,99.43
2022-10-27T01:31:33.819Z,99.84
2022-10-27T01:32:33.518Z,99.94
2022-10-27T01:33:33.584Z,99.58
2022-10-27T01:34:33.882Z,99.43
2022-10-27T01:35:33.493Z,99.28
2022-10-27T01:36:33.733Z,99.08
2022-10-27T01:37:33.518Z,98.92
2022-10-27T01:38:33.674Z,98.92
2022-10-27T01:39:33.723Z,98.92
2022-10-27T01:40:33.603Z,99.02
2022-10-27T01:41:33.982Z,99.13
2022-10-27T01:42:33.613Z,99.13
2022-10-27T01:43:33.784Z,99.22
2022-10-27T01:44:33.809Z,99.63
2022-10-27T01:45:33.918Z,99.63
2022-10-27T01:46:33.603Z,99.33
2022-10-27T01:47:33.449Z,99.43
2022-10-27T01:48:33.601Z,99.74
2022-10-27T01:49:33.345Z,99.53
2022-10-27T01:50:45.064Z,99.53
2022-10-27T01:51:33.534Z,99.53
2022-10-27T01:52:34.048Z,99.58
2022-10-27T01:53:33.286Z,99.58
2022-10-27T01:54:33.263Z,99.68
2022-10-27T01:55:33.280Z,99.78
2022-10-27T01:56:33.458Z,99.88
2022-10-27T01:57:33.288Z,99.88
2022-10-27T01:58:33.618Z,99.99
2022-10-27T01:59:33.245Z,99.99
2022-10-27T02:00:33.335Z,99.99
2022-10-27T02:01:33.252Z,99.99
2022-10-27T02:02:33.249Z,99.99
2022-10-27T02:03:33.211Z,99.99
2022-10-27T02:04:33.270Z,99.99
2022-10-27T02:05:33.314Z,99.99
2022-10-27T02:06:33.229Z,99.99
2022-10-27T02:07:33.675Z,99.99
2022-10-27T02:08:33.698Z,99.99
2022-10-27T02:09:33.149Z,99.99
2022-10-27T02:10:33.217Z,99.99
2022-10-27T02:11:33.273Z,99.99
2022-10-27T02:12:33.147Z,99.99
2022-10-27T02:13:33.328Z,99.99
2022-10-27T02:14:33.285Z,99.99
2022-10-27T02:15:33.313Z,99.99
2022-10-27T02:16:33.091Z,99.99
2022-10-27T02:17:33.120Z,99.99
2022-10-27T02:18:33.075Z,99.99
2022-10-27T02:19:33.243Z,99.99
2022-10-27T02:20:33.303Z,99.99
2022-10-27T02:21:33.131Z,99.99
2022-10-27T02:22:33.172Z,99.99
2022-10-27T02:23:33.198Z,99.99
2022-10-27T02:24:33.077Z,99.99
2022-10-27T02:25:33.076Z,99.99
2022-10-27T02:26:33.058Z,99.99
2022-10-27T02:27:33.056Z,99.99
2022-10-27T02:28:32.977Z,99.99
2022-10-27T02:29:33.136Z,99.99
2022-10-27T02:30:33.115Z,99.99
2022-10-27T02:31:33.086Z,99.99
2022-10-27T02:32:33.202Z,99.94
2022-10-27T02:33:32.928Z,99.84
2022-10-27T02:34:32.959Z,99.94
2022-10-27T02:35:33.043Z,99.43
2022-10-27T02:36:33.162Z,98.92
2022-10-27T02:37:33.144Z,98.72
2022-10-27T02:38:33.406Z,98.41
2022-10-27T02:39:33.291Z,98.41
2022-10-27T02:40:33.026Z,98.41
2022-10-27T02:41:32.848Z,98.41
2022-10-27T02:42:32.839Z,98.56
2022-10-27T02:43:33.205Z,98.97
2022-10-27T02:44:32.840Z,99.17
2022-10-27T02:45:32.824Z,99.07
2022-10-27T02:46:33.056Z,98.97
2022-10-27T02:47:32.787Z,98.86
2022-10-27T02:48:32.844Z,98.86
2022-10-27T02:49:32.794Z,98.86
2022-10-27T02:50:33.224Z,98.66
2022-10-27T02:51:32.901Z,98.66
2022-10-27T02:52:32.873Z,99.11
2022-10-27T02:53:32.911Z,99.63
2022-10-27T02:54:33.325Z,99.83
2022-10-27T02:55:33.023Z,99.83
2022-10-27T02:56:33.087Z,99.99
2022-10-27T02:57:32.743Z,99.99
2022-10-27T02:58:32.878Z,99.99
2022-10-27T02:59:32.972Z,99.93
2022-10-27T03:00:32.745Z,99.83
2022-10-27T03:01:33.296Z,99.83
2022-10-27T03:02:32.790Z,99.73
2022-10-27T03:03:32.844Z,99.63
2022-10-27T03:04:32.706Z,99.52
2022-10-27T03:05:32.732Z,99.99
2022-10-27T03:06:33.019Z,99.99
2022-10-27T03:07:32.736Z,99.99
2022-10-27T03:08:32.594Z,99.99
2022-10-27T03:09:32.603Z,99.73
2022-10-27T03:10:32.773Z,99.42
2022-10-27T03:11:32.527Z,99.32
2022-10-27T03:12:32.644Z,98.91
2022-10-27T03:13:32.700Z,99.52
2022-10-27T03:14:32.507Z,99.57
2022-10-27T03:15:32.651Z,99.47
2022-10-27T03:16:32.639Z,99.47
2022-10-27T03:17:32.718Z,99.37
2022-10-27T03:18:32.507Z,99.37
2022-10-27T03:19:32.691Z,99.57
2022-10-27T03:20:32.654Z,99.67
2022-10-27T03:21:32.471Z,99.88
2022-10-27T03:22:32.593Z,99.99
2022-10-27T03:23:32.672Z,99.99
2022-10-27T03:24:32.397Z,99.99
2022-10-27T03:25:32.394Z,99.99
2022-10-27T03:26:32.568Z,99.99
2022-10-27T03:27:32.543Z,99.99
2022-10-27T03:28:32.805Z,99.99
2022-10-27T03:29:32.708Z,99.99
2022-10-27T03:30:32.382Z,99.99
2022-10-27T03:31:32.528Z,99.99
2022-10-27T03:32:32.814Z,99.99
2022-10-27T03:33:32.573Z,99.99
2022-10-27T03:34:33.269Z,99.99
2022-10-27T03:35:32.344Z,99.99
2022-10-27T03:36:32.505Z,99.99
2022-10-27T03:37:32.749Z,99.99
2022-10-27T03:38:32.356Z,99.99
2022-10-27T03:39:32.450Z,99.99
2022-10-27T03:40:32.306Z,99.99
2022-10-27T03:41:32.258Z,99.99
2022-10-27T03:42:32.260Z,99.99
2022-10-27T03:43:32.426Z,99.99
2022-10-27T03:44:32.450Z,99.99
2022-10-27T03:45:32.193Z,99.99
2022-10-27T03:46:32.441Z,99.99
2022-10-27T03:47:32.170Z,99.99
2022-10-27T03:48:32.215Z,99.99
2022-10-27T03:49:32.319Z,99.99
2022-10-27T03:50:32.182Z,99.99
2022-10-27T03:51:32.323Z,99.99
2022-10-27T03:52:33.373Z,99.99
2022-10-27T03:53:32.312Z,99.99
2022-10-27T03:54:32.384Z,99.99
2022-10-27T03:55:32.493Z,99.99
2022-10-27T03:56:32.681Z,99.99
2022-10-27T03:57:32.581Z,99.99
2022-10-27T03:58:32.626Z,99.99
2022-10-27T03:59:32.150Z,99.99
2022-10-27T04:00:32.245Z,99.99
2022-10-27T04:01:32.284Z,99.99
2022-10-27T04:02:32.187Z,99.99
2022-10-27T04:03:32.065Z,99.99
2022-10-27T04:04:32.797Z,99.99
2022-10-27T04:05:32.033Z,99.99
2022-10-27T04:06:32.012Z,99.99
2022-10-27T04:07:31.994Z,99.99
2022-10-27T04:08:31.974Z,99.99
2022-10-27T04:09:32.891Z,99.99
2022-10-27T04:10:31.967Z,99.99
2022-10-27T04:11:32.143Z,99.99
2022-10-27T04:12:31.923Z,99.99
2022-10-27T04:13:32.351Z,99.99
2022-10-27T04:14:31.946Z,99.99
2022-10-27T04:15:32.104Z,99.99
2022-10-27T04:16:32.480Z,99.99
2022-10-27T04:17:31.928Z,99.99
2022-10-27T04:18:32.043Z,99.99
2022-10-27T04:19:32.085Z,99.99
2022-10-27T04:20:31.961Z,99.99
2022-10-27T04:21:32.094Z,99.99
2022-10-27T04:22:32.177Z,99.99
2022-10-27T04:23:32.087Z,99.99
2022-10-27T04:24:31.842Z,99.99
2022-10-27T04:25:31.936Z,99.99
2022-10-27T04:26:31.827Z,99.99
2022-10-27T04:27:31.819Z,99.99
2022-10-27T04:28:31.889Z,99.99
2022-10-27T04:29:31.809Z,99.99
2022-10-27T04:30:31.758Z,99.99
2022-10-27T04:31:31.762Z,99.99
2022-10-27T04:32:31.785Z,99.99
2022-10-27T04:33:31.734Z,99.99
2022-10-27T04:34:31.846Z,99.99
2022-10-27T04:35:31.898Z,99.99
2022-10-27T04:36:31.728Z,99.99
2022-10-27T04:37:31.724Z,99.99
2022-10-27T04:38:33.498Z,99.99
2022-10-27T04:39:32.003Z,99.99
2022-10-27T04:40:31.950Z,99.99
2022-10-27T04:41:32.011Z,99.99
2022-10-27T04:42:31.677Z,99.99
2022-10-27T04:43:31.661Z,99.99
2022-10-27T04:44:31.756Z,99.99
2022-10-27T04:45:31.932Z,99.99
2022-10-27T04:46:31.657Z,99.99
2022-10-27T04:47:31.771Z,99.99
2022-10-27T04:48:31.595Z,99.99
2022-10-27T04:49:31.580Z,99.99
2022-10-27T04:50:31.537Z,99.99
2022-10-27T04:51:31.530Z,99.99
2022-10-27T04:52:31.791Z,99.99
2022-10-27T04:53:31.543Z,99.99
2022-10-27T04:54:31.571Z,99.99
2022-10-27T04:55:31.517Z,99.99
2022-10-27T04:56:31.657Z,99.99
2022-10-27T04:57:31.518Z,99.99
2022-10-27T04:58:31.821Z,99.99
2022-10-27T04:59:31.450Z,99.99
2022-10-27T05:01:31.516Z,99.99
2022-10-27T05:02:34.652Z,99.99
2022-10-27T05:03:31.611Z,99.99
2022-10-27T05:04:31.515Z,99.99
2022-10-27T05:05:31.459Z,99.99
2022-10-27T05:06:31.446Z,99.99
2022-10-27T05:07:31.378Z,99.99
2022-10-27T05:08:31.517Z,99.99
2022-10-27T05:09:31.477Z,99.99
2022-10-27T05:10:31.523Z,99.99
2022-10-27T05:11:31.391Z,99.99
2022-10-27T05:12:31.344Z,99.99
2022-10-27T05:13:31.366Z,99.99
2022-10-27T05:14:31.319Z,99.99
2022-10-27T05:15:31.419Z,99.99
2022-10-27T05:16:31.359Z,99.99
2022-10-27T05:17:31.333Z,99.99
2022-10-27T05:18:31.362Z,99.99
2022-10-27T05:19:31.606Z,99.99
2022-10-27T05:20:31.662Z,99.99
2022-10-27T05:21:31.456Z,99.99
2022-10-27T05:22:31.445Z,99.99
2022-10-27T05:23:31.603Z,99.99
2022-10-27T05:24:31.456Z,99.99
2022-10-27T05:25:31.650Z,99.99
2022-10-27T05:26:34.139Z,99.99
2022-10-27T05:27:31.648Z,99.99
2022-10-27T05:28:31.679Z,99.99
2022-10-27T05:29:31.308Z,99.99
2022-10-27T05:30:31.180Z,99.99
2022-10-27T05:31:31.163Z,99.99
2022-10-27T05:32:31.185Z,99.99
2022-10-27T05:33:31.163Z,99.99
2022-10-27T05:34:31.721Z,99.99
2022-10-27T05:35:31.134Z,99.99
2022-10-27T05:36:31.123Z,99.99
2022-10-27T05:37:31.158Z,99.99
2022-10-27T05:38:31.061Z,99.99
2022-10-27T05:39:31.083Z,99.99
2022-10-27T05:40:31.146Z,99.99
2022-10-27T05:41:31.081Z,99.99
2022-10-27T05:42:31.275Z,99.99
2022-10-27T05:43:34.664Z,99.99
2022-10-27T05:44:31.125Z,99.99
2022-10-27T05:45:31.123Z,99.99
2022-10-27T05:46:31.094Z,99.99
2022-10-27T05:47:31.292Z,99.99
2022-10-27T05:48:31.216Z,99.99
2022-10-27T05:49:31.293Z,99.99
2022-10-27T05:50:31.272Z,99.99
2022-10-27T05:51:31.249Z,99.99
2022-10-27T05:52:30.974Z,99.99
2022-10-27T05:53:30.934Z,99.99
2022-10-27T05:54:30.947Z,99.99
2022-10-27T05:55:30.948Z,99.99
2022-10-27T05:56:30.929Z,99.99
2022-10-27T05:57:31.086Z,99.99
2022-10-27T05:58:31.432Z,99.99
2022-10-27T05:59:30.906Z,99.99
2022-10-27T06:00:31.086Z,99.99
2022-10-27T06:01:31.436Z,99.99
2022-10-27T06:02:31.144Z,99.99
2022-10-27T06:03:30.854Z,99.99
2022-10-27T06:04:31.327Z,99.99
2022-10-27T06:05:31.043Z,99.99
2022-10-27T06:06:31.042Z,99.99
2022-10-27T06:07:30.781Z,99.99
2022-10-27T06:08:30.964Z,99.99
2022-10-27T06:09:30.938Z,99.99
2022-10-27T06:10:31.406Z,99.99
2022-10-27T06:11:30.926Z,99.99
2022-10-27T06:12:30.840Z,99.99
2022-10-27T06:13:30.753Z,99.99
2022-10-27T06:14:30.826Z,99.99
2022-10-27T06:15:31.070Z,99.99
2022-10-27T06:16:30.772Z,99.99
2022-10-27T06:17:30.863Z,99.99
2022-10-27T06:18:30.854Z,99.99
2022-10-27T06:19:30.895Z,99.99
2022-10-27T06:20:30.989Z,99.99
2022-10-27T06:21:30.677Z,99.99
2022-10-27T06:22:30.905Z,99.99
2022-10-27T06:23:30.664Z,99.99
2022-10-27T06:24:30.803Z,99.99
2022-10-27T06:25:30.854Z,99.99
2022-10-27T06:26:30.771Z,99.99
2022-10-27T06:27:30.617Z,99.99
2022-10-27T06:28:30.826Z,99.99
2022-10-27T06:29:31.005Z,99.99
2022-10-27T06:30:31.045Z,99.99
2022-10-27T06:31:30.952Z,99.99
2022-10-27T06:32:30.768Z,99.99
2022-10-27T06:33:30.563Z,99.99
2022-10-27T06:34:30.725Z,99.99
2022-10-27T06:35:30.716Z,99.99
2022-10-27T06:36:31.048Z,99.99
2022-10-27T06:37:30.501Z,99.99
2022-10-27T06:38:30.719Z,99.99
2022-10-27T06:39:31.377Z,99.99
2022-10-27T06:40:30.815Z,99.99
2022-10-27T06:41:30.591Z,99.99
2022-10-27T06:42:42.951Z,99.99
2022-10-27T06:43:30.574Z,99.99
2022-10-27T06:44:30.571Z,99.99
2022-10-27T06:45:30.420Z,99.99
2022-10-27T06:46:30.534Z,99.99
2022-10-27T06:47:30.508Z,99.99
2022-10-27T06:48:30.609Z,99.99
2022-10-27T06:49:30.417Z,99.99
2022-10-27T06:50:30.420Z,99.99
2022-10-27T06:51:30.374Z,99.99
2022-10-27T06:52:30.420Z,99.99
2022-10-27T06:53:30.455Z,99.99
2022-10-27T06:54:30.682Z,99.99
2022-10-27T06:55:30.765Z,99.99
2022-10-27T06:56:30.829Z,99.99
2022-10-27T06:57:30.666Z,99.99
2022-10-27T06:58:30.521Z,99.99
2022-10-27T06:59:30.465Z,99.99
2022-10-27T07:00:30.289Z,99.99
2022-10-27T07:01:30.572Z,99.99
2022-10-27T07:02:30.765Z,99.99
2022-10-27T07:03:30.254Z,99.99
2022-10-27T07:04:30.431Z,99.99
2022-10-27T07:05:30.942Z,99.99
2022-10-27T07:06:30.321Z,99.99
2022-10-27T07:07:30.456Z,99.99
2022-10-27T07:08:30.201Z,99.99
2022-10-27T07:09:30.265Z,99.99
2022-10-27T07:10:30.944Z,99.99
2022-10-27T07:11:30.526Z,99.99
2022-10-27T07:12:30.179Z,99.99
2022-10-27T07:13:30.454Z,99.99
2022-10-27T07:14:30.652Z,99.99
2022-10-27T07:15:30.279Z,99.99
2022-10-27T07:16:34.152Z,99.99
2022-10-27T07:17:30.156Z,99.99
2022-10-27T07:18:30.363Z,99.99
2022-10-27T07:19:30.161Z,99.99
2022-10-27T07:20:30.308Z,99.99
2022-10-27T07:21:30.342Z,99.99
2022-10-27T07:22:30.301Z,99.99
2022-10-27T07:23:30.237Z,99.99
2022-10-27T07:24:30.213Z,99.99
2022-10-27T07:25:30.322Z,99.99
2022-10-27T07:26:30.542Z,99.99
2022-10-27T07:27:30.129Z,99.99
2022-10-27T07:28:30.196Z,99.99
2022-10-27T07:29:30.098Z,99.99
2022-10-27T07:30:30.592Z,99.99
2022-10-27T07:31:29.999Z,99.99
2022-10-27T07:32:30.037Z,99.99
2022-10-27T07:33:29.964Z,99.99
2022-10-27T07:34:30.007Z,99.99
2022-10-27T07:35:30.394Z,99.99
2022-10-27T07:36:29.949Z,99.99
2022-10-27T07:37:29.932Z,99.99
2022-10-27T07:38:29.954Z,99.99
2022-10-27T07:39:30.149Z,99.99
2022-10-27T07:40:30.583Z,99.99
2022-10-27T07:41:29.880Z,99.99
2022-10-27T07:42:30.395Z,99.99
2022-10-27T07:43:29.916Z,99.99
2022-10-27T07:44:29.870Z,99.99
2022-10-27T07:45:29.832Z,99.99
2022-10-27T07:46:30.085Z,99.99
2022-10-27T07:47:29.846Z,99.99
2022-10-27T07:48:30.041Z,99.55
2022-10-27T07:49:30.178Z,97.83
2022-10-27T07:50:30.090Z,97.67
2022-10-27T07:51:29.783Z,96.26
2022-10-27T07:52:29.963Z,95.65
2022-10-27T07:53:30.312Z,96.01
2022-10-27T07:54:30.399Z,95.30
2022-10-27T07:55:30.393Z,95.20
2022-10-27T07:56:30.106Z,94.85
2022-10-27T07:57:29.914Z,92.83
2022-10-27T07:58:29.830Z,91.71
2022-10-27T07:59:30.033Z,92.79
2022-10-27T08:00:30.211Z,92.28
2022-10-27T08:01:29.943Z,92.38
2022-10-27T08:02:30.430Z,91.93
2022-10-27T08:03:30.051Z,91.42
2022-10-27T08:04:29.946Z,91.12
2022-10-27T08:05:30.132Z,91.53
2022-10-27T08:06:29.820Z,90.47
2022-10-27T08:08:29.882Z,90.88
2022-10-27T08:09:30.037Z,90.12
2022-10-27T08:10:29.834Z,89.98
2022-10-27T08:11:30.003Z,87.56
2022-10-27T08:12:29.789Z,88.43
2022-10-27T08:13:29.701Z,86.57
2022-10-27T08:14:29.697Z,86.57
2022-10-27T08:15:30.005Z,86.07
2022-10-27T08:16:30.261Z,86.67
2022-10-27T08:17:29.651Z,86.73
2022-10-27T08:18:29.672Z,85.52
2022-10-27T08:19:29.674Z,84.01
2022-10-27T08:20:29.502Z,83.80
2022-10-27T08:21:29.630Z,84.21
2022-10-27T08:22:29.541Z,83.80
2022-10-27T08:23:29.698Z,83.60
2022-10-27T08:24:29.760Z,83.70
2022-10-27T08:25:29.929Z,82.70
2022-10-27T08:26:30.060Z,84.41
2022-10-27T08:27:30.244Z,83.80
2022-10-27T08:28:29.826Z,84.71
2022-10-27T08:29:29.483Z,84.71
2022-10-27T08:30:32.978Z,84.11
2022-10-27T08:31:29.550Z,82.70
2022-10-27T08:32:29.463Z,83.91
2022-10-27T08:33:29.385Z,82.79
2022-10-27T08:34:30.015Z,82.59
2022-10-27T08:35:29.502Z,83.36
2022-10-27T08:36:29.448Z,84.47
2022-10-27T08:37:29.564Z,82.96
2022-10-27T08:38:29.326Z,82.05
2022-10-27T08:39:29.514Z,82.35
2022-10-27T08:40:29.629Z,83.06
2022-10-27T08:41:30.131Z,83.56
2022-10-27T08:42:29.263Z,83.26
2022-10-27T08:43:29.279Z,81.75
2022-10-27T08:44:29.237Z,83.52
2022-10-27T08:45:29.367Z,83.16
2022-10-27T08:46:29.298Z,82.92
2022-10-27T08:47:29.237Z,84.33
2022-10-27T08:48:29.357Z,80.90
2022-10-27T08:49:29.225Z,81.81
2022-10-27T08:50:29.299Z,82.62
2022-10-27T08:51:29.191Z,80.57
2022-10-27T08:52:29.217Z,82.18
2022-10-27T08:53:29.296Z,80.87
2022-10-27T08:54:29.216Z,79.82
2022-10-27T08:55:29.361Z,80.73
2022-10-27T08:56:29.157Z,79.62
2022-10-27T08:57:29.385Z,79.68
2022-10-27T08:58:29.873Z,77.17
2022-10-27T08:59:29.102Z,76.93
2022-10-27T09:00:29.221Z,77.33
2022-10-27T09:01:29.325Z,78.50
2022-10-27T09:02:29.535Z,78.20
2022-10-27T09:03:29.269Z,78.50
2022-10-27T09:04:29.170Z,79.61
2022-10-27T09:05:29.462Z,78.90
2022-10-27T09:06:29.342Z,80.01
2022-10-27T09:07:29.057Z,78.36
2022-10-27T09:08:29.347Z,77.66
2022-10-27T09:09:28.989Z,77.66
2022-10-27T09:10:29.015Z,77.52
2022-10-27T09:11:28.968Z,78.03
2022-10-27T09:12:29.132Z,77.62
2022-10-27T09:13:29.166Z,77.09
2022-10-27T09:14:29.031Z,72.87
2022-10-27T09:15:28.933Z,75.48
2022-10-27T09:16:28.950Z,74.14
2022-10-27T09:17:29.200Z,74.64
2022-10-27T09:18:29.204Z,75.24
2022-10-27T09:19:29.522Z,75.91
2022-10-27T09:20:29.041Z,73.40
2022-10-27T09:21:28.876Z,73.20
2022-10-27T09:22:28.946Z,73.50
2022-10-27T09:23:28.932Z,74.20
2022-10-27T09:24:29.095Z,74.67
2022-10-27T09:25:28.866Z,72.97
2022-10-27T09:26:29.078Z,74.03
2022-10-27T09:27:29.325Z,70.89
2022-10-27T09:28:28.860Z,70.29
2022-10-27T09:29:28.902Z,72.23
2022-10-27T09:30:29.238Z,70.59
2022-10-27T09:31:29.074Z,69.36
2022-10-27T09:32:28.946Z,70.62
2022-10-27T09:33:29.131Z,66.63
2022-10-27T09:34:29.255Z,67.13
2022-10-27T09:35:29.252Z,69.66
2022-10-27T09:36:28.983Z,67.26
2022-10-27T09:37:29.051Z,68.36
2022-10-27T09:38:28.843Z,66.76
2022-10-27T09:39:28.791Z,67.76
2022-10-27T09:40:28.692Z,66.73
2022-10-27T09:41:29.055Z,65.73
2022-10-27T09:42:29.069Z,65.70
2022-10-27T09:43:28.666Z,70.29
2022-10-27T09:44:28.767Z,65.23
2022-10-27T09:45:29.071Z,63.71
2022-10-27T09:46:28.659Z,62.26
2022-10-27T09:47:29.127Z,63.25
2022-10-27T09:48:28.589Z,64.81
2022-10-27T09:49:28.723Z,61.23
2022-10-27T09:50:28.718Z,59.81
2022-10-27T09:51:28.749Z,61.03
2022-10-27T09:52:28.703Z,61.66
2022-10-27T09:53:28.911Z,62.26
2022-10-27T09:54:28.658Z,62.62
2022-10-27T09:55:29.194Z,61.90
2022-10-27T09:56:28.835Z,62.26
2022-10-27T09:57:29.010Z,58.78
2022-10-27T09:58:28.765Z,60.21
2022-10-27T09:59:28.671Z,58.28
2022-10-27T10:00:28.526Z,62.76
2022-10-27T10:01:29.088Z,60.27
2022-10-27T10:02:29.081Z,59.48
2022-10-27T10:03:28.490Z,57.46
2022-10-27T10:04:28.503Z,57.39
2022-10-27T10:05:28.535Z,58.48
2022-10-27T10:06:28.492Z,59.85
2022-10-27T10:07:28.511Z,58.73
2022-10-27T10:08:28.479Z,56.41
2022-10-27T10:09:28.464Z,59.34
2022-10-27T10:10:29.683Z,56.28
2022-10-27T10:11:28.366Z,57.24
2022-10-27T10:12:28.492Z,55.16
2022-10-27T10:13:28.388Z,54.86
2022-10-27T10:14:28.414Z,55.36
2022-10-27T10:15:28.341Z,54.96
2022-10-27T10:16:29.020Z,56.25
2022-10-27T10:17:28.350Z,54.17
2022-10-27T10:18:28.298Z,54.35
2022-10-27T10:19:28.322Z,52.98
2022-10-27T10:20:28.306Z,53.97
2022-10-27T10:21:28.292Z,55.46
2022-10-27T10:22:28.306Z,55.26
2022-10-27T10:23:28.285Z,54.49
2022-10-27T10:24:28.264Z,53.70
2022-10-27T10:25:28.505Z,55.83
2022-10-27T10:26:28.271Z,56.23
2022-10-27T10:27:28.234Z,56.80
2022-10-27T10:28:28.260Z,55.15
2022-10-27T10:29:28.224Z,55.44
2022-10-27T10:30:28.758Z,55.34
2022-10-27T10:31:28.206Z,55.44
2022-10-27T10:32:28.253Z,55.10
2022-10-27T10:33:28.381Z,57.78
2022-10-27T10:34:28.227Z,58.34
2022-10-27T10:35:28.300Z,57.89
2022-10-27T10:36:28.303Z,55.36
2022-10-27T10:37:29.977Z,55.53
2022-10-27T10:38:28.532Z,55.47
2022-10-27T10:39:28.120Z,55.05
2022-10-27T10:40:28.337Z,54.04
2022-10-27T10:41:28.275Z,53.25
2022-10-27T10:42:28.759Z,51.47
2022-10-27T10:43:28.333Z,52.19
2022-10-27T10:44:28.368Z,51.82
2022-10-27T10:45:28.419Z,53.11
2022-10-27T10:46:28.568Z,52.64
2022-10-27T10:47:28.306Z,52.88
2022-10-27T10:48:28.173Z,53.28
2022-10-27T10:49:28.497Z,54.47
2022-10-27T10:50:28.083Z,53.88
2022-10-27T10:51:28.286Z,53.80
2022-10-27T10:52:28.580Z,54.10
2022-10-27T10:53:30.855Z,54.49
2022-10-27T10:54:28.175Z,54.79
2022-10-27T10:55:28.449Z,55.81
2022-10-27T10:56:28.410Z,56.01
2022-10-27T10:57:30.603Z,56.21
2022-10-27T10:58:28.196Z,55.61
2022-10-27T10:59:28.028Z,57.10
2022-10-27T11:00:28.122Z,56.01
2022-10-27T11:01:28.590Z,56.57
2022-10-27T11:02:28.411Z,55.85
2022-10-27T11:03:27.875Z,53.63
2022-10-27T11:04:28.006Z,54.10
2022-10-27T11:05:27.843Z,55.05
2022-10-27T11:06:28.085Z,52.19
2022-10-27T11:07:28.042Z,54.36
2022-10-27T11:08:27.902Z,54.59
2022-10-27T11:09:28.067Z,52.81
2022-10-27T11:10:28.016Z,53.42
2022-10-27T11:11:27.914Z,55.16
2022-10-27T11:12:27.818Z,57.07
2022-10-27T11:13:27.876Z,57.07
2022-10-27T11:14:27.886Z,55.46
2022-10-27T11:15:27.817Z,54.57
2022-10-27T11:16:27.936Z,54.67
2022-10-27T11:17:28.448Z,55.76
2022-10-27T11:18:28.540Z,55.53
2022-10-27T11:19:28.101Z,56.52
2022-10-27T11:20:27.949Z,55.83
2022-10-27T11:21:27.723Z,54.14
2022-10-27T11:22:27.936Z,54.64
2022-10-27T11:23:27.971Z,55.33
2022-10-27T11:24:27.721Z,54.84
2022-10-27T11:25:27.875Z,54.07
2022-10-27T11:26:27.720Z,54.20
2022-10-27T11:27:27.669Z,55.39
2022-10-27T11:28:27.783Z,58.06
2022-10-27T11:29:27.669Z,57.46
2022-10-27T11:30:27.705Z,58.36
2022-10-27T11:31:27.882Z,56.11
2022-10-27T11:32:27.740Z,56.30
2022-10-27T11:33:27.602Z,57.10
2022-10-27T11:34:28.061Z,56.01
2022-10-27T11:35:27.718Z,57.20
2022-10-27T11:36:27.770Z,58.06
2022-10-27T11:37:27.633Z,57.17
2022-10-27T11:39:27.743Z,56.74
2022-10-27T11:40:27.704Z,57.04
2022-10-27T11:41:27.675Z,55.68
2022-10-27T11:42:27.502Z,57.67
2022-10-27T11:43:27.494Z,57.27
2022-10-27T11:44:27.553Z,57.27
2022-10-27T11:45:27.926Z,57.07
2022-10-27T11:46:27.646Z,57.76
2022-10-27T11:47:27.749Z,57.44
2022-10-27T11:48:27.636Z,54.79
2022-10-27T11:49:27.477Z,54.60
2022-10-27T11:50:27.490Z,56.35
2022-10-27T11:51:27.596Z,55.58
2022-10-27T11:52:27.676Z,55.49
2022-10-27T11:53:27.572Z,57.03
2022-10-27T11:54:27.501Z,56.63
2022-10-27T11:55:27.566Z,56.73
2022-10-27T11:56:27.413Z,58.02
2022-10-27T11:57:39.128Z,57.03
2022-10-27T11:58:27.490Z,56.53
2022-10-27T11:59:27.415Z,58.02
2022-10-27T12:00:27.586Z,57.50
2022-10-27T12:01:27.426Z,56.90
2022-10-27T12:02:27.464Z,59.88
2022-10-27T12:03:27.549Z,57.67
2022-10-27T12:04:27.493Z,58.06
2022-10-27T12:05:27.329Z,57.86
2022-10-27T12:06:27.495Z,55.11
2022-10-27T12:07:27.330Z,54.22
2022-10-27T12:09:27.323Z,56.04
2022-10-27T12:10:27.471Z,56.66
2022-10-27T12:11:27.345Z,57.06
2022-10-27T12:12:27.254Z,58.34
2022-10-27T12:13:27.221Z,58.25
2022-10-27T12:14:27.236Z,57.35
2022-10-27T12:15:27.214Z,56.83
2022-10-27T12:16:27.269Z,56.40
2022-10-27T12:17:27.210Z,58.09
2022-10-27T12:18:27.156Z,56.73
2022-10-27T12:19:27.736Z,56.83
2022-10-27T12:20:27.201Z,56.46
2022-10-27T12:21:27.343Z,57.65
2022-10-27T12:22:27.210Z,58.74
2022-10-27T12:23:27.316Z,59.80
2022-10-27T12:24:27.455Z,57.65
2022-10-27T12:25:27.260Z,56.59
2022-10-27T12:26:27.517Z,58.37
2022-10-27T12:27:27.233Z,60.56
2022-10-27T12:28:28.065Z,59.17
2022-10-27T12:29:27.230Z,58.20
2022-10-27T12:30:27.234Z,58.53
2022-10-27T12:31:27.328Z,59.95
2022-10-27T12:32:27.251Z,60.97
2022-10-27T12:33:27.481Z,61.20
2022-10-27T12:34:27.399Z,60.70
2022-10-27T12:35:27.049Z,61.10
2022-10-27T12:36:27.112Z,62.10
2022-10-27T12:37:27.216Z,60.64
2022-10-27T12:38:27.026Z,60.61
2022-10-27T12:39:27.277Z,59.72
2022-10-27T12:40:27.209Z,59.99
2022-10-27T12:41:26.997Z,61.68
2022-10-27T12:42:27.372Z,60.49
2022-10-27T12:43:26.967Z,60.49
2022-10-27T12:44:27.184Z,60.02
2022-10-27T12:45:27.189Z,60.22
2022-10-27T12:46:27.148Z,59.65
2022-10-27T12:47:27.275Z,60.57
2022-10-27T12:48:26.952Z,61.67
2022-10-27T12:49:27.000Z,61.90
2022-10-27T12:50:27.192Z,62.29
2022-10-27T12:51:26.935Z,61.93
2022-10-27T12:52:27.089Z,62.95
2022-10-27T12:53:27.386Z,62.95
2022-10-27T12:54:29.303Z,64.18
2022-10-27T12:55:26.814Z,63.81
2022-10-27T12:56:26.958Z,64.51